Time;durP1;ratioP1;P1;durP2;ratioP2;P2;SDS_P1;SDS_P2;PMS_P1;PMS_P2;Temp;Humidity;BMP_temperature;BMP_pressure;BME280_temperature;BME280_humidity;BME280_pressure;Samples;Min_cycle;Max_cycle;Signal;HPM_P1;HPM_P2
2022/10/26 00:02:11;;;;;;;13.90;10.60;;;12.40;99.90;;;;;;4995553;28;20212;-67
2022/10/26 00:04:38;;;;;;;15.83;12.20;;;12.40;99.90;;;;;;4995394;28;20216;-67
2022/10/26 00:07:05;;;;;;;16.07;12.13;;;12.30;99.90;;;;;;4995082;28;20218;-67
2022/10/26 00:09:32;;;;;;;20.67;13.23;;;12.40;99.90;;;;;;4998238;28;20202;-67
2022/10/26 00:12:00;;;;;;;21.00;14.23;;;12.40;99.90;;;;;;5014975;28;20562;-68
2022/10/26 00:14:27;;;;;;;22.50;15.20;;;12.50;99.90;;;;;;5006589;28;20214;-67
2022/10/26 00:16:54;;;;;;;24.33;16.27;;;12.50;99.90;;;;;;5006836;28;20198;-67
2022/10/26 00:19:21;;;;;;;21.00;15.67;;;12.50;99.90;;;;;;5014797;28;20214;-67
2022/10/26 00:21:48;;;;;;;22.70;15.57;;;12.50;99.90;;;;;;5014361;28;20230;-67
2022/10/26 00:24:15;;;;;;;24.73;15.00;;;12.50;99.90;;;;;;5014964;28;20567;-66
2022/10/26 00:26:41;;;;;;;24.60;15.60;;;12.50;99.90;;;;;;5014859;28;20766;-67
2022/10/26 00:29:11;;;;;;;20.83;14.70;;;12.60;99.90;;;;;;5014775;28;20562;-67
2022/10/26 00:31:38;;;;;;;18.00;13.97;;;12.60;99.90;;;;;;5014310;28;20231;-67
2022/10/26 00:34:06;;;;;;;19.73;13.93;;;12.60;99.90;;;;;;5014524;28;20218;-67
2022/10/26 00:36:32;;;;;;;18.97;13.00;;;12.60;99.90;;;;;;5014684;28;20210;-67
2022/10/26 00:38:59;;;;;;;17.70;13.50;;;12.60;99.90;;;;;;5013818;28;20202;-68
2022/10/26 00:41:29;;;;;;;20.47;13.17;;;12.60;99.90;;;;;;5014556;28;20222;-67
2022/10/26 00:43:56;;;;;;;17.40;12.93;;;12.60;99.90;;;;;;5014425;28;20207;-66
2022/10/26 00:46:27;;;;;;;17.57;12.77;;;12.60;99.90;;;;;;5014511;28;20206;-67
2022/10/26 00:48:58;;;;;;;17.77;12.90;;;12.60;99.90;;;;;;5001515;28;20203;-66
2022/10/26 00:51:31;;;;;;;15.53;11.73;;;12.60;99.90;;;;;;4994698;28;20187;-67
2022/10/26 00:54:00;;;;;;;21.03;13.03;;;12.60;99.90;;;;;;4994652;28;20607;-68
2022/10/26 00:56:28;;;;;;;20.10;12.80;;;12.60;99.90;;;;;;4994757;28;20573;-66
2022/10/26 00:58:55;;;;;;;14.53;11.60;;;12.60;99.90;;;;;;5007169;28;20199;-67
2022/10/26 01:01:24;;;;;;;16.43;11.73;;;12.60;99.90;;;;;;5013821;28;20238;-68
2022/10/26 01:03:50;;;;;;;15.93;10.97;;;12.60;99.90;;;;;;5014154;28;20223;-67
2022/10/26 01:06:17;;;;;;;16.33;11.53;;;12.60;99.90;;;;;;4998779;28;20589;-67
2022/10/26 01:08:44;;;;;;;14.77;11.20;;;12.70;99.90;;;;;;4994308;28;20215;-67
2022/10/26 01:11:12;;;;;;;16.10;11.57;;;12.60;99.90;;;;;;4994360;28;20222;-67
2022/10/26 01:13:41;;;;;;;17.33;11.47;;;12.60;99.90;;;;;;4997890;28;20261;-67
2022/10/26 01:16:33;;;;;;;16.57;11.53;;;12.60;99.90;;;;;;5012504;28;20672;-68
2022/10/26 01:19:19;;;;;;;14.63;10.47;;;12.60;99.90;;;;;;5013864;28;20528;-67
2022/10/26 01:21:51;;;;;;;15.73;11.13;;;12.60;99.90;;;;;;5005065;28;20211;-68
2022/10/26 01:24:34;;;;;;;16.40;11.67;;;12.60;99.90;;;;;;4994188;28;20203;-69
2022/10/26 01:27:18;;;;;;;17.07;11.60;;;12.60;99.90;;;;;;4993930;28;20195;-66
2022/10/26 01:30:13;;;;;;;14.60;11.27;;;12.60;99.90;;;;;;4993598;28;20188;-66
2022/10/26 01:32:46;;;;;;;16.53;10.83;;;12.60;99.90;;;;;;4986618;28;20207;-68
2022/10/26 01:35:18;;;;;;;14.87;11.13;;;12.60;99.90;;;;;;4994021;28;20665;-67
2022/10/26 01:37:49;;;;;;;16.37;10.70;;;12.60;99.90;;;;;;4993456;28;20200;-67
2022/10/26 01:40:21;;;;;;;14.33;10.73;;;12.70;99.90;;;;;;4993915;28;20215;-68
2022/10/26 01:42:53;;;;;;;17.30;11.47;;;12.70;99.90;;;;;;4993299;28;20212;-67
2022/10/26 01:45:21;;;;;;;16.17;11.20;;;12.60;99.90;;;;;;4993783;28;20199;-69
2022/10/26 01:47:48;;;;;;;18.43;11.17;;;12.60;99.90;;;;;;5007711;28;20222;-68
2022/10/26 01:50:18;;;;;;;17.40;10.80;;;12.70;99.90;;;;;;5013222;28;20203;-67
2022/10/26 01:52:44;;;;;;;17.40;11.47;;;12.60;99.90;;;;;;5013000;28;20199;-67
2022/10/26 01:55:39;;;;;;;17.07;11.97;;;12.70;99.90;;;;;;5012953;28;20210;-68
2022/10/26 01:58:15;;;;;;;17.50;11.60;;;12.70;99.90;;;;;;5010592;28;20711;-67
2022/10/26 02:00:55;;;;;;;16.63;11.50;;;12.70;99.90;;;;;;5012280;28;20253;-68
2022/10/26 02:03:29;;;;;;;15.03;10.97;;;12.70;99.90;;;;;;5004383;28;20234;-68
2022/10/26 02:06:06;;;;;;;18.87;12.00;;;12.70;99.90;;;;;;4993382;28;20201;-67
2022/10/26 02:08:48;;;;;;;20.70;11.40;;;12.70;99.90;;;;;;4992960;28;20198;-67
2022/10/26 02:11:24;;;;;;;15.80;10.43;;;12.70;99.90;;;;;;4993423;28;20555;-68
2022/10/26 02:13:57;;;;;;;16.03;10.87;;;12.70;99.90;;;;;;5001681;28;20233;-68
2022/10/26 02:16:28;;;;;;;17.37;12.33;;;12.70;99.90;;;;;;5012125;28;20194;-67
2022/10/26 02:19:02;;;;;;;16.43;11.53;;;12.70;99.90;;;;;;5012662;28;20648;-66
2022/10/26 02:21:36;;;;;;;18.27;11.80;;;12.70;99.90;;;;;;5012475;28;20546;-67
2022/10/26 02:24:04;;;;;;;14.10;10.70;;;12.70;99.90;;;;;;4998891;28;20204;-68
2022/10/26 02:39:55;;;;;;;16.47;10.90;;;12.70;99.90;;;;;;5109240;27;20588;-68
2022/10/26 02:42:24;;;;;;;15.40;10.07;;;12.90;99.90;;;;;;5109284;28;20629;-68
2022/10/26 02:44:56;;;;;;;17.93;11.30;;;12.90;99.90;;;;;;5109411;28;20203;-69
2022/10/26 02:47:25;;;;;;;15.27;10.77;;;12.90;99.90;;;;;;5103142;28;20208;-68
2022/10/26 02:49:52;;;;;;;16.33;11.30;;;12.90;99.90;;;;;;5088915;28;20200;-68
2022/10/26 02:52:28;;;;;;;15.73;11.13;;;12.90;99.90;;;;;;5088748;28;20215;-67
2022/10/26 02:55:03;;;;;;;17.30;10.43;;;12.90;99.90;;;;;;5088874;28;20217;-68
2022/10/26 02:57:38;;;;;;;16.07;10.37;;;12.90;99.90;;;;;;5088942;28;20296;-68
2022/10/26 03:00:06;;;;;;;17.27;10.60;;;12.80;99.90;;;;;;5108815;28;20199;-67
2022/10/26 03:02:33;;;;;;;17.13;9.90;;;12.80;99.90;;;;;;5108699;28;20657;-68
2022/10/26 03:05:09;;;;;;;15.50;10.63;;;12.80;99.90;;;;;;5109009;28;20676;-68
2022/10/26 03:07:36;;;;;;;17.77;10.27;;;12.80;99.90;;;;;;5109005;28;20218;-68
2022/10/26 03:10:05;;;;;;;19.40;11.20;;;12.80;99.90;;;;;;5090241;28;20646;-68
2022/10/26 03:12:31;;;;;;;16.60;10.77;;;12.80;99.90;;;;;;5088093;28;20204;-68
2022/10/26 03:14:58;;;;;;;19.40;12.27;;;12.80;99.90;;;;;;5088269;28;20204;-68
2022/10/26 03:17:25;;;;;;;15.53;10.70;;;12.80;99.90;;;;;;5088154;28;20208;-69
2022/10/26 03:19:52;;;;;;;16.57;10.97;;;12.80;99.90;;;;;;5091481;28;20205;-68
2022/10/26 03:22:18;;;;;;;19.27;10.50;;;12.80;99.90;;;;;;5088189;28;20204;-68
2022/10/26 03:24:45;;;;;;;16.77;10.73;;;12.80;99.90;;;;;;5088387;28;20278;-69
2022/10/26 03:27:14;;;;;;;15.57;10.00;;;12.80;99.90;;;;;;5088009;28;20204;-68
2022/10/26 03:29:41;;;;;;;15.57;10.63;;;12.80;99.90;;;;;;5089654;28;20222;-69
2022/10/26 03:32:08;;;;;;;16.17;10.10;;;12.80;99.90;;;;;;5088104;28;20211;-68
2022/10/26 03:34:34;;;;;;;13.70;10.10;;;12.80;99.90;;;;;;5087772;28;20239;-68
2022/10/26 03:37:01;;;;;;;17.40;11.73;;;12.80;99.90;;;;;;5087973;28;20590;-67
2022/10/26 03:39:28;;;;;;;14.57;10.40;;;12.80;99.90;;;;;;5081112;28;20239;-67
2022/10/26 03:41:55;;;;;;;20.17;11.63;;;12.70;99.90;;;;;;5090307;28;20211;-68
2022/10/26 03:44:23;;;;;;;15.33;11.43;;;12.70;99.90;;;;;;5094577;28;20684;-66
2022/10/26 03:46:50;;;;;;;17.47;11.87;;;12.70;99.90;;;;;;5094605;28;20211;-69
2022/10/26 03:49:17;;;;;;;13.20;10.00;;;12.70;99.90;;;;;;5094485;28;20230;-68
2022/10/26 03:51:43;;;;;;;14.43;9.87;;;12.70;99.90;;;;;;5090923;28;20204;-69
2022/10/26 03:54:10;;;;;;;17.47;10.43;;;12.70;99.90;;;;;;5094338;28;20208;-68
2022/10/26 03:56:37;;;;;;;14.97;10.57;;;12.80;99.90;;;;;;5092727;28;20208;-68
2022/10/26 03:59:04;;;;;;;13.47;9.97;;;12.80;99.90;;;;;;5094555;28;20550;-68
2022/10/26 04:01:32;;;;;;;16.17;10.17;;;12.80;99.90;;;;;;5093993;28;20220;-67
2022/10/26 04:03:59;;;;;;;14.50;9.83;;;12.80;99.90;;;;;;5094220;28;20227;-68
2022/10/26 04:06:26;;;;;;;14.20;10.30;;;12.80;99.90;;;;;;5094081;28;20218;-68
2022/10/26 04:08:57;;;;;;;17.80;10.73;;;12.80;99.90;;;;;;5090783;28;20585;-67
2022/10/26 04:11:23;;;;;;;13.33;9.47;;;12.80;99.90;;;;;;5093559;28;20202;-68
2022/10/26 04:13:50;;;;;;;16.33;9.40;;;12.80;99.90;;;;;;5093892;28;20208;-68
2022/10/26 04:16:17;;;;;;;14.50;9.97;;;12.80;99.90;;;;;;5093932;28;20211;-69
2022/10/26 04:18:45;;;;;;;13.50;9.73;;;12.80;99.90;;;;;;5084041;28;20200;-69
2022/10/26 04:21:12;;;;;;;13.30;9.70;;;12.80;99.90;;;;;;5073666;28;20669;-68
2022/10/26 04:23:39;;;;;;;15.20;9.90;;;12.80;99.90;;;;;;5074008;28;20208;-69
2022/10/26 04:26:06;;;;;;;17.10;10.10;;;12.90;99.90;;;;;;5073706;28;20209;-69
2022/10/26 04:28:32;;;;;;;13.43;9.80;;;12.80;99.90;;;;;;5074150;28;20225;-68
2022/10/26 04:30:59;;;;;;;14.27;9.77;;;12.90;99.90;;;;;;5093663;28;20204;-70
2022/10/26 04:33:26;;;;;;;13.60;10.27;;;12.90;99.90;;;;;;5093643;28;20210;-67
2022/10/26 04:35:59;;;;;;;14.93;9.90;;;12.90;99.90;;;;;;5093587;28;20223;-68
2022/10/26 04:38:25;;;;;;;16.17;10.43;;;12.90;99.90;;;;;;5093435;28;20480;-68
2022/10/26 04:40:52;;;;;;;16.50;10.40;;;12.90;99.90;;;;;;5077949;28;20201;-70
2022/10/26 04:43:19;;;;;;;21.57;13.63;;;12.90;99.90;;;;;;5073113;28;20228;-68
2022/10/26 04:45:46;;;;;;;15.97;10.60;;;12.90;99.90;;;;;;5073717;28;20207;-70
2022/10/26 04:48:13;;;;;;;16.20;9.80;;;12.90;99.90;;;;;;5073273;28;20228;-69
2022/10/26 04:50:40;;;;;;;12.73;9.43;;;12.90;99.90;;;;;;5073479;28;20569;-70
2022/10/26 04:53:09;;;;;;;15.07;9.43;;;12.90;99.90;;;;;;5073197;28;20196;-70
2022/10/26 04:55:36;;;;;;;12.90;8.90;;;12.90;99.90;;;;;;5073213;28;20205;-70
2022/10/26 04:58:03;;;;;;;19.17;10.07;;;12.90;99.90;;;;;;5073034;28;20226;-69
2022/10/26 05:00:31;;;;;;;14.17;9.10;;;12.90;99.90;;;;;;5073188;28;20662;-69
2022/10/26 05:03:01;;;;;;;11.97;8.70;;;12.90;99.90;;;;;;5075896;28;20216;-72
2022/10/26 05:05:28;;;;;;;14.77;9.63;;;12.90;99.90;;;;;;5072860;28;20205;-68
2022/10/26 05:07:56;;;;;;;10.90;8.90;;;12.90;99.90;;;;;;5073084;28;20224;-69
2022/10/26 05:10:24;;;;;;;19.60;12.60;;;12.90;99.90;;;;;;5072721;28;20209;-69
2022/10/26 09:42:43;;;;;;;11.43;7.00;;;14.40;99.90;;;;;;5146040;27;20236;-70
2022/10/26 09:45:16;;;;;;;15.27;7.10;;;14.40;99.90;;;;;;5085545;27;1264669;-70
2022/10/26 09:47:47;;;;;;;12.73;7.77;;;14.50;99.90;;;;;;5129990;28;20218;-70
2022/10/26 09:50:22;;;;;;;13.53;8.07;;;14.50;99.90;;;;;;5130104;28;20520;-70
2022/10/26 09:52:48;;;;;;;9.90;7.60;;;14.60;99.90;;;;;;5129314;28;20194;-68
2022/10/26 09:55:16;;;;;;;14.10;7.77;;;14.60;99.90;;;;;;5130318;28;20216;-68
2022/10/26 09:57:48;;;;;;;13.63;7.63;;;14.60;99.90;;;;;;5129702;28;20195;-68
2022/10/26 10:00:16;;;;;;;11.10;7.77;;;14.60;99.90;;;;;;5129951;28;20191;-70
2022/10/26 10:02:45;;;;;;;16.03;8.80;;;14.70;99.90;;;;;;5129589;28;20203;-70
2022/10/26 10:05:27;;;;;;;14.20;7.93;;;14.70;99.90;;;;;;5129830;28;20657;-69
2022/10/26 10:08:11;;;;;;;14.17;7.83;;;14.60;99.90;;;;;;5129624;28;20238;-69
2022/10/26 10:10:38;;;;;;;13.43;6.87;;;14.70;99.90;;;;;;5129286;28;20192;-70
2022/10/26 10:13:17;;;;;;;11.03;6.90;;;14.80;99.90;;;;;;5126642;28;20637;-70
2022/10/26 10:15:54;;;;;;;11.73;6.77;;;14.80;99.90;;;;;;5108592;28;20202;-68
2022/10/26 10:18:22;;;;;;;12.60;6.77;;;14.80;99.90;;;;;;5108849;28;20199;-68
2022/10/26 10:20:57;;;;;;;10.57;6.43;;;15.00;99.90;;;;;;5108006;28;20210;-67
2022/10/26 10:23:30;;;;;;;14.73;6.70;;;15.10;99.90;;;;;;5120662;28;20214;-67
2022/10/26 10:26:03;;;;;;;11.43;6.50;;;15.10;99.90;;;;;;5124114;28;20218;-70
2022/10/26 10:28:33;;;;;;;12.67;7.03;;;15.20;99.90;;;;;;5109513;28;20728;-67
2022/10/26 10:31:01;;;;;;;14.53;6.57;;;15.30;99.90;;;;;;5107802;28;20262;-68
2022/10/26 10:33:37;;;;;;;10.63;6.03;;;15.30;99.90;;;;;;5109243;28;20211;-70
2022/10/26 10:36:08;;;;;;;11.23;6.13;;;15.30;99.90;;;;;;5112282;28;20239;-69
2022/10/26 10:38:41;;;;;;;15.00;6.30;;;15.30;99.90;;;;;;5113119;28;20189;-68
2022/10/26 10:41:18;;;;;;;10.43;5.83;;;15.30;99.90;;;;;;5115324;28;20243;-69
2022/10/26 10:43:49;;;;;;;10.50;6.17;;;15.30;99.90;;;;;;5098003;28;20235;-70
2022/10/26 10:46:22;;;;;;;12.40;6.13;;;15.30;99.90;;;;;;5095055;28;20231;-69
2022/10/26 10:48:54;;;;;;;10.53;6.83;;;15.30;99.90;;;;;;5114861;28;20216;-68
2022/10/26 10:51:24;;;;;;;10.00;6.50;;;15.30;99.90;;;;;;5114872;28;20187;-71
2022/10/26 10:53:53;;;;;;;11.47;5.90;;;15.30;99.90;;;;;;5115033;28;20637;-71
2022/10/26 10:56:40;;;;;;;12.70;6.40;;;15.30;99.90;;;;;;5095996;28;20569;-70
2022/10/26 10:59:44;;;;;;;11.83;6.07;;;15.20;99.90;;;;;;5094657;28;20571;-68
2022/10/26 11:02:42;;;;;;;9.93;5.90;;;15.20;99.90;;;;;;5097889;28;20207;-70
2022/10/26 11:05:23;;;;;;;10.90;5.90;;;15.20;99.90;;;;;;5107081;28;20217;-69
2022/10/26 11:07:54;;;;;;;11.17;6.10;;;15.20;99.90;;;;;;5095549;28;20242;-70
2022/10/26 11:10:26;;;;;;;11.13;6.70;;;15.20;99.90;;;;;;5101179;28;20211;-69
2022/10/26 11:12:59;;;;;;;10.77;6.67;;;15.20;99.90;;;;;;5098152;28;20202;-69
2022/10/26 11:15:31;;;;;;;11.53;6.80;;;15.20;99.90;;;;;;5101421;28;20196;-68
2022/10/26 11:18:06;;;;;;;9.93;7.03;;;15.10;99.90;;;;;;5102919;28;20208;-68
2022/10/26 11:20:36;;;;;;;14.40;8.17;;;15.00;99.90;;;;;;5097761;28;20709;-68
2022/10/26 11:23:10;;;;;;;11.60;7.30;;;14.90;99.90;;;;;;5094672;28;20200;-68
2022/10/26 11:25:43;;;;;;;15.37;8.53;;;14.90;99.90;;;;;;5093984;28;20196;-70
2022/10/26 11:28:16;;;;;;;13.03;7.53;;;14.90;99.90;;;;;;5097901;28;20216;-69
2022/10/26 11:30:49;;;;;;;13.87;7.60;;;15.00;99.90;;;;;;5099285;28;20662;-70
2022/10/26 11:33:20;;;;;;;11.57;7.83;;;15.00;99.90;;;;;;5104165;28;20219;-71
2022/10/26 11:35:55;;;;;;;17.70;8.37;;;15.10;99.90;;;;;;5099227;28;20282;-69
2022/10/26 11:38:29;;;;;;;15.73;7.83;;;15.20;99.90;;;;;;5098425;28;20192;-68
2022/10/26 11:41:03;;;;;;;18.37;8.63;;;15.20;99.90;;;;;;5110715;28;20223;-69
2022/10/26 11:43:37;;;;;;;15.37;7.93;;;15.30;99.90;;;;;;5109121;28;20239;-69
2022/10/26 11:46:13;;;;;;;19.50;8.23;;;15.30;99.90;;;;;;5093929;28;20195;-71
2022/10/26 11:48:47;;;;;;;12.63;7.60;;;15.30;99.90;;;;;;5096879;28;20331;-67
2022/10/26 11:51:20;;;;;;;14.63;8.30;;;15.30;99.90;;;;;;5111751;28;20203;-68
2022/10/26 11:53:49;;;;;;;12.33;7.03;;;15.30;99.90;;;;;;5102967;28;20656;-70
2022/10/26 11:56:23;;;;;;;10.50;6.53;;;15.40;99.90;;;;;;5102459;28;20216;-68
2022/10/26 11:58:50;;;;;;;11.27;6.63;;;15.40;99.90;;;;;;5113990;28;20184;-67
2022/10/26 12:01:20;;;;;;;13.27;8.13;;;15.40;99.90;;;;;;5113535;28;20204;-70
2022/10/26 12:03:49;;;;;;;12.13;7.40;;;15.30;99.90;;;;;;5110229;28;20692;-76
2022/10/26 12:06:20;;;;;;;15.47;7.77;;;15.40;99.90;;;;;;5095068;28;20203;-77
2022/10/26 12:08:52;;;;;;;13.37;6.93;;;15.40;99.90;;;;;;5111889;28;20211;-80
2022/10/26 12:11:33;;;;;;;16.80;7.93;;;15.40;99.90;;;;;;5108382;28;20204;-78
2022/10/26 12:14:04;;;;;;;13.50;7.70;;;15.40;99.90;;;;;;5103823;28;20200;-69
2022/10/26 12:16:43;;;;;;;13.00;7.83;;;15.50;99.90;;;;;;5098012;28;20201;-68
2022/10/26 12:19:16;;;;;;;11.93;7.57;;;15.50;99.90;;;;;;5100126;28;20192;-70
2022/10/26 12:21:43;;;;;;;11.87;7.37;;;15.50;99.90;;;;;;5091469;28;20219;-69
2022/10/26 12:24:33;;;;;;;16.43;7.60;;;15.50;99.90;;;;;;5103945;28;20204;-69
2022/10/26 12:27:01;;;;;;;10.67;6.87;;;15.60;99.90;;;;;;5092917;28;20234;-69
2022/10/26 12:29:32;;;;;;;9.40;6.27;;;15.60;99.90;;;;;;5097132;28;20220;-71
2022/10/26 12:32:01;;;;;;;11.20;6.23;;;15.60;99.90;;;;;;5113046;28;20196;-69
2022/10/26 12:34:59;;;;;;;9.30;6.27;;;15.60;99.90;;;;;;5113053;28;20215;-70
2022/10/26 12:37:34;;;;;;;10.83;7.00;;;15.60;99.90;;;;;;5097252;28;20233;-71
2022/10/26 12:40:39;;;;;;;9.67;6.60;;;15.60;99.90;;;;;;5092609;28;20211;-69
2022/10/26 12:43:35;;;;;;;12.60;6.87;;;15.50;99.90;;;;;;5093471;28;20215;-70
2022/10/26 12:46:42;;;;;;;11.73;6.93;;;15.60;99.90;;;;;;5093995;28;20206;-70
2022/10/26 12:50:02;;;;;;;10.93;6.77;;;15.50;99.90;;;;;;5103812;28;20601;-70
2022/10/26 12:52:53;;;;;;;10.47;6.80;;;15.40;99.90;;;;;;5096090;28;20204;-69
2022/10/26 12:55:53;;;;;;;9.63;6.40;;;15.30;99.90;;;;;;5096596;28;20573;-70
2022/10/26 12:59:06;;;;;;;12.97;7.30;;;15.20;99.90;;;;;;5108293;28;20706;-70
2022/10/26 13:02:03;;;;;;;16.87;8.53;;;15.20;99.90;;;;;;5100506;28;20195;-70
2022/10/26 17:34:37;;;;;;;8.47;4.57;;;12.20;99.90;;;;;;5129770;27;20600;-70
2022/10/26 17:37:04;;;;;;;9.47;4.27;;;12.70;99.90;;;;;;5130021;28;20203;-70
2022/10/26 17:39:31;;;;;;;8.83;4.43;;;12.80;99.90;;;;;;5129858;28;20289;-70
2022/10/26 17:41:57;;;;;;;6.47;4.30;;;12.90;99.90;;;;;;5129193;28;20213;-72
2022/10/26 17:44:24;;;;;;;8.07;4.63;;;12.90;99.90;;;;;;5129972;27;20790;-69
2022/10/26 17:46:51;;;;;;;9.93;5.10;;;13.00;99.90;;;;;;5129053;27;20628;-69
2022/10/26 17:49:18;;;;;;;9.33;5.90;;;13.00;99.90;;;;;;5129939;27;20202;-70
2022/10/26 17:51:46;;;;;;;9.63;4.77;;;13.00;99.90;;;;;;5128729;28;20195;-72
2022/10/26 17:54:13;;;;;;;7.30;4.83;;;13.00;99.90;;;;;;5125407;28;20210;-70
2022/10/26 17:56:39;;;;;;;9.40;5.70;;;13.00;99.90;;;;;;5108461;28;20664;-70
2022/10/26 17:59:11;;;;;;;10.27;5.90;;;13.00;99.90;;;;;;5108663;28;20669;-71
2022/10/26 18:01:38;;;;;;;9.20;5.30;;;13.00;99.90;;;;;;5108960;28;20223;-72
2022/10/26 18:04:05;;;;;;;7.70;5.13;;;13.10;99.90;;;;;;5108836;28;20199;-72
2022/10/26 18:06:31;;;;;;;9.53;5.20;;;13.10;99.90;;;;;;5109028;28;20546;-70
2022/10/26 18:09:00;;;;;;;11.23;5.50;;;13.10;99.90;;;;;;5112079;28;20215;-72
2022/10/26 18:11:27;;;;;;;10.40;5.40;;;13.00;99.90;;;;;;5107444;28;20261;-71
2022/10/26 18:13:54;;;;;;;9.57;5.73;;;13.00;99.90;;;;;;5111129;28;20283;-68
2022/10/26 18:16:22;;;;;;;8.67;5.27;;;13.10;99.90;;;;;;5128977;28;20225;-70
2022/10/26 18:18:56;;;;;;;8.37;5.10;;;13.00;99.90;;;;;;5128383;28;20210;-71
2022/10/26 18:21:23;;;;;;;9.17;4.93;;;13.00;99.90;;;;;;5125609;28;20222;-71
2022/10/26 18:23:52;;;;;;;6.80;4.83;;;12.90;99.90;;;;;;5126372;28;20199;-72
2022/10/26 18:26:21;;;;;;;11.10;5.50;;;12.90;99.90;;;;;;5127730;28;20214;-70
2022/10/26 18:28:48;;;;;;;8.27;5.00;;;13.00;99.90;;;;;;5127482;28;20203;-71
2022/10/26 18:31:17;;;;;;;10.00;5.87;;;13.00;99.90;;;;;;5122210;28;20207;-69
2022/10/26 18:33:44;;;;;;;9.40;5.13;;;12.90;99.90;;;;;;5120755;28;20227;-71
2022/10/26 18:36:13;;;;;;;12.07;5.90;;;12.90;99.90;;;;;;5112066;28;20215;-70
2022/10/26 18:38:40;;;;;;;8.77;5.67;;;12.80;99.90;;;;;;5113552;28;20199;-69
2022/10/26 18:41:08;;;;;;;12.97;6.00;;;12.80;99.90;;;;;;5111167;28;20214;-69
2022/10/26 18:43:39;;;;;;;8.67;5.50;;;12.80;99.90;;;;;;5112223;28;20203;-69
2022/10/26 18:46:08;;;;;;;18.17;5.97;;;12.80;99.90;;;;;;5112774;28;20195;-70
2022/10/26 18:48:35;;;;;;;9.00;5.53;;;12.80;99.90;;;;;;5110441;28;20663;-71
2022/10/26 18:51:03;;;;;;;8.77;6.07;;;12.70;99.90;;;;;;5112209;28;20211;-73
2022/10/26 18:53:32;;;;;;;9.20;5.50;;;12.70;99.90;;;;;;5111306;28;20238;-69
2022/10/26 18:56:01;;;;;;;9.93;6.13;;;12.60;99.90;;;;;;5112290;28;20294;-69
2022/10/26 18:58:31;;;;;;;11.70;5.50;;;12.60;99.90;;;;;;5112305;27;20205;-69
2022/10/26 19:01:11;;;;;;;12.10;6.20;;;12.60;99.90;;;;;;5116556;27;20199;-67
2022/10/26 19:03:39;;;;;;;12.00;6.87;;;12.60;99.90;;;;;;5101879;28;20206;-67
2022/10/26 19:06:10;;;;;;;11.17;6.70;;;12.50;99.90;;;;;;5113089;27;20327;-70
2022/10/26 19:08:37;;;;;;;11.57;7.07;;;12.60;99.90;;;;;;5134369;27;20201;-71
2022/10/26 19:11:04;;;;;;;15.80;8.63;;;12.50;99.90;;;;;;5116744;27;20203;-71
2022/10/26 19:13:31;;;;;;;10.73;6.10;;;12.50;99.90;;;;;;5113522;28;20215;-69
2022/10/26 19:16:02;;;;;;;10.03;6.47;;;12.40;99.90;;;;;;5130789;27;20665;-69
2022/10/26 19:18:31;;;;;;;12.27;5.97;;;12.40;99.90;;;;;;5128586;27;20188;-69
2022/10/26 19:20:58;;;;;;;10.33;5.97;;;12.50;99.90;;;;;;5125145;27;20199;-69
2022/10/26 19:23:25;;;;;;;11.87;6.27;;;12.50;99.90;;;;;;5113312;28;20698;-70
2022/10/26 19:25:55;;;;;;;10.27;6.13;;;12.50;99.90;;;;;;5112915;28;20203;-70
2022/10/26 19:28:22;;;;;;;8.17;5.53;;;12.50;99.90;;;;;;5113350;28;20222;-72
2022/10/26 19:30:49;;;;;;;12.17;5.87;;;12.50;99.90;;;;;;5112934;28;20206;-72
2022/10/26 19:33:16;;;;;;;12.07;5.53;;;12.50;99.90;;;;;;5131573;27;20615;-73
2022/10/26 19:35:44;;;;;;;7.87;5.27;;;12.50;99.90;;;;;;5120556;27;20573;-72
2022/10/26 19:38:10;;;;;;;10.83;5.70;;;12.50;99.90;;;;;;5112863;28;20203;-71
2022/10/26 19:40:37;;;;;;;10.57;5.67;;;12.50;99.90;;;;;;5111819;28;20222;-71
2022/10/26 19:43:04;;;;;;;9.97;5.67;;;12.40;99.90;;;;;;5111371;28;20215;-69
2022/10/26 19:45:31;;;;;;;10.23;5.63;;;12.40;99.90;;;;;;5110446;28;20191;-69
2022/10/26 19:47:58;;;;;;;10.40;5.40;;;12.40;99.90;;;;;;5112000;27;20659;-70
2022/10/26 19:50:25;;;;;;;9.40;5.03;;;12.40;99.90;;;;;;5114002;27;20252;-70
2022/10/26 19:52:53;;;;;;;11.63;5.47;;;12.40;99.90;;;;;;5124834;27;20218;-73
2022/10/26 19:55:19;;;;;;;12.30;5.33;;;12.50;99.90;;;;;;5114974;27;20673;-71
2022/10/26 19:57:46;;;;;;;7.57;5.00;;;12.40;99.90;;;;;;5112164;28;20505;-71
2022/10/26 20:00:14;;;;;;;10.60;5.40;;;12.40;99.90;;;;;;5112344;28;20238;-71
2022/10/26 20:02:40;;;;;;;9.93;5.80;;;12.40;99.90;;;;;;5112629;28;20684;-68
2022/10/26 20:05:08;;;;;;;10.80;5.40;;;12.40;99.90;;;;;;5112973;28;20207;-69
2022/10/26 20:07:34;;;;;;;10.33;5.17;;;12.30;99.90;;;;;;5111919;28;20211;-71
2022/10/26 20:10:03;;;;;;;7.83;5.60;;;12.30;99.90;;;;;;5102559;28;20207;-69
2022/10/26 20:12:29;;;;;;;7.77;5.47;;;12.30;99.90;;;;;;5096016;28;20200;-68
2022/10/26 20:14:56;;;;;;;11.13;5.13;;;12.30;99.90;;;;;;5090311;28;20239;-69
2022/10/26 20:17:24;;;;;;;13.80;5.07;;;12.30;99.90;;;;;;5105142;28;20203;-68
2022/10/26 20:19:54;;;;;;;9.83;5.63;;;12.30;99.90;;;;;;5111931;28;20714;-69
2022/10/26 20:22:21;;;;;;;8.87;5.80;;;12.30;99.90;;;;;;5122817;27;20234;-67
2022/10/26 20:24:48;;;;;;;11.90;5.57;;;12.30;99.90;;;;;;5132516;27;20521;-68
2022/10/26 20:27:16;;;;;;;10.73;5.83;;;12.30;99.90;;;;;;5132553;27;20202;-68
2022/10/26 20:29:43;;;;;;;10.47;5.70;;;12.30;99.90;;;;;;5115228;27;20200;-68
2022/10/26 20:32:13;;;;;;;12.47;8.30;;;12.30;99.90;;;;;;5095235;28;20206;-70
2022/10/26 20:34:40;;;;;;;11.33;6.13;;;12.30;99.90;;;;;;5113413;27;20246;-68
2022/10/26 20:37:08;;;;;;;9.40;5.63;;;12.30;99.90;;;;;;5111929;28;20203;-67
2022/10/26 20:39:35;;;;;;;12.87;5.90;;;12.30;99.90;;;;;;5096445;27;20199;-68
2022/10/26 20:42:02;;;;;;;9.10;5.70;;;12.30;99.90;;;;;;5118880;27;20671;-68
2022/10/26 20:44:35;;;;;;;9.60;5.90;;;12.30;99.90;;;;;;5114010;27;20648;-68
2022/10/26 20:47:02;;;;;;;11.93;5.43;;;12.30;99.90;;;;;;5110439;28;20645;-66
2022/10/26 20:49:29;;;;;;;12.53;5.87;;;12.30;99.90;;;;;;5111211;28;20653;-67
2022/10/26 20:52:01;;;;;;;9.90;5.97;;;12.30;99.90;;;;;;5110696;28;20548;-67
2022/10/26 20:54:30;;;;;;;10.07;6.17;;;12.30;99.90;;;;;;5111063;28;20668;-69
2022/10/26 20:57:01;;;;;;;8.30;5.60;;;12.30;99.90;;;;;;5108347;27;20219;-70
2022/10/26 20:59:35;;;;;;;12.43;6.03;;;12.30;99.90;;;;;;5110792;28;20201;-69
2022/10/26 21:02:03;;;;;;;11.17;6.17;;;12.30;99.90;;;;;;5108515;28;20543;-69
2022/10/26 21:04:30;;;;;;;10.47;6.50;;;12.30;99.90;;;;;;5111360;28;20249;-69
2022/10/26 21:06:56;;;;;;;8.93;5.67;;;12.30;99.90;;;;;;5111318;28;20222;-69
2022/10/26 21:09:23;;;;;;;10.40;6.30;;;12.30;99.90;;;;;;5111411;28;20199;-70
2022/10/26 21:11:51;;;;;;;8.47;6.23;;;12.20;99.90;;;;;;5111420;28;20203;-69
2022/10/26 21:14:18;;;;;;;14.07;8.33;;;12.20;99.90;;;;;;5122977;27;20240;-70
2022/10/26 21:16:47;;;;;;;12.73;6.40;;;12.20;99.90;;;;;;5131574;27;20209;-69
2022/10/26 21:19:14;;;;;;;10.63;6.33;;;12.10;99.90;;;;;;5131916;27;20206;-68
2022/10/26 21:21:41;;;;;;;11.97;7.17;;;12.10;99.90;;;;;;5130752;28;20222;-67
2022/10/26 21:24:08;;;;;;;9.97;6.30;;;12.10;99.90;;;;;;5131813;27;20198;-69
2022/10/26 21:26:34;;;;;;;9.37;6.60;;;12.10;99.90;;;;;;5131378;27;20198;-68
2022/10/26 21:29:02;;;;;;;9.90;6.33;;;12.10;99.90;;;;;;5132193;27;20205;-69
2022/10/26 21:31:29;;;;;;;11.50;7.13;;;12.00;99.90;;;;;;5118697;27;20305;-68
2022/10/26 21:33:57;;;;;;;10.57;6.60;;;12.00;99.90;;;;;;5125403;28;20696;-68
2022/10/26 21:36:24;;;;;;;8.93;6.60;;;12.00;99.90;;;;;;5132452;27;20199;-68
2022/10/26 21:38:51;;;;;;;11.27;6.60;;;12.00;99.90;;;;;;5132256;27;20203;-67
2022/10/26 21:41:19;;;;;;;9.93;7.20;;;11.90;99.90;;;;;;5116998;27;20244;-69
2022/10/26 21:43:49;;;;;;;14.43;7.37;;;11.90;99.90;;;;;;5131933;27;20203;-67
2022/10/26 21:46:17;;;;;;;9.77;6.83;;;11.90;99.90;;;;;;5132431;27;20668;-68
2022/10/26 21:48:44;;;;;;;11.63;6.83;;;11.90;99.90;;;;;;5116228;27;20207;-68
2022/10/26 21:51:14;;;;;;;13.87;6.87;;;11.80;99.90;;;;;;5111339;28;20199;-68
2022/10/26 21:53:41;;;;;;;19.60;7.90;;;11.80;99.90;;;;;;5111583;28;20234;-68
2022/10/26 21:56:11;;;;;;;11.30;7.40;;;11.80;99.90;;;;;;5111768;28;20669;-67
2022/10/26 21:58:39;;;;;;;11.47;7.07;;;11.80;99.90;;;;;;5126518;28;20199;-67
2022/10/26 22:01:06;;;;;;;11.93;7.03;;;11.70;99.90;;;;;;5131924;27;20203;-68
2022/10/26 22:03:33;;;;;;;12.17;7.10;;;11.80;99.90;;;;;;5131854;27;20195;-67
2022/10/26 22:06:00;;;;;;;12.93;7.17;;;11.80;99.90;;;;;;5121443;27;20203;-68
2022/10/26 22:08:28;;;;;;;10.03;6.50;;;11.70;99.90;;;;;;5131825;27;20211;-68